createdAt,value
2022-11-19T00:00:41.047Z,4.67
2022-11-19T00:03:10.810Z,5.40
2022-11-19T00:05:42.345Z,5.23
2022-11-19T00:08:19.547Z,4.37
2022-11-19T00:10:49.980Z,4.97
2022-11-19T00:13:17.275Z,5.57
2022-11-19T00:15:47.084Z,6.60
2022-11-19T00:18:16.835Z,5.10
2022-11-19T00:20:46.536Z,4.80
2022-11-19T00:23:18.907Z,5.33
2022-11-19T00:25:48.595Z,6.13
2022-11-19T00:28:18.307Z,4.67
2022-11-19T00:30:48.806Z,6.17
2022-11-19T00:33:18.664Z,5.03
2022-11-19T00:35:48.376Z,6.40
2022-11-19T00:38:20.736Z,6.63
2022-11-19T00:40:50.443Z,5.70
2022-11-19T00:43:32.604Z,6.37
2022-11-19T00:46:02.368Z,6.23
2022-11-19T00:48:32.057Z,6.20
2022-11-19T00:51:02.197Z,5.77
2022-11-19T00:53:34.464Z,6.87
2022-11-19T00:56:05.103Z,6.43
2022-11-19T00:58:34.798Z,6.30
2022-11-19T01:01:04.525Z,7.90
2022-11-19T01:03:34.967Z,5.30
2022-11-19T01:06:04.684Z,7.07
2022-11-19T01:08:37.275Z,6.13
2022-11-19T01:11:08.652Z,5.80
2022-11-19T01:13:39.078Z,5.90
2022-11-19T01:16:11.676Z,6.43
2022-11-19T01:18:42.455Z,5.97
2022-11-19T01:21:14.224Z,7.10
2022-11-19T01:23:47.545Z,7.07
2022-11-19T01:26:18.342Z,5.23
2022-11-19T01:28:48.694Z,6.23
2022-11-19T01:31:20.816Z,6.30
2022-11-19T01:33:51.311Z,7.70
2022-11-19T01:36:23.076Z,6.53
2022-11-19T01:38:56.286Z,6.33
2022-11-19T01:41:28.280Z,6.17
2022-11-19T01:44:00.865Z,6.43
2022-11-19T01:46:33.484Z,6.37
2022-11-19T01:49:08.304Z,5.93
2022-11-19T01:51:40.919Z,6.00
2022-11-19T01:54:18.748Z,5.57
2022-11-19T01:56:48.497Z,7.27
2022-11-19T01:59:21.539Z,6.13
2022-11-19T02:01:51.557Z,6.37
2022-11-19T02:04:22.124Z,6.13
2022-11-19T02:06:52.140Z,7.40
2022-11-19T02:09:25.060Z,6.13
2022-11-19T02:12:09.662Z,5.50
2022-11-19T02:15:07.486Z,6.97
2022-11-19T02:17:53.982Z,7.00
2022-11-19T02:20:44.332Z,6.10
2022-11-19T02:23:56.140Z,7.57
2022-11-19T02:26:58.288Z,7.67
2022-11-19T02:29:53.199Z,4.80
2022-11-19T02:32:30.968Z,6.07
2022-11-19T02:35:06.794Z,7.90
2022-11-19T02:37:44.844Z,7.37
2022-11-19T02:40:22.938Z,8.30
2022-11-19T02:42:59.762Z,7.60
2022-11-19T02:45:38.101Z,7.20
2022-11-19T02:48:13.183Z,6.50
2022-11-19T02:50:48.043Z,7.53
2022-11-19T02:53:17.770Z,6.97
2022-11-19T02:56:10.539Z,6.67
2022-11-19T02:58:56.317Z,8.27
2022-11-19T03:01:47.810Z,8.77
2022-11-19T03:04:34.416Z,6.87
2022-11-19T03:07:07.933Z,8.23
2022-11-19T03:09:44.232Z,6.80
2022-11-19T03:12:21.881Z,8.57
2022-11-19T03:15:10.513Z,5.43
2022-11-19T03:17:56.757Z,8.23
2022-11-19T03:20:33.037Z,7.60
2022-11-19T03:23:07.941Z,6.57
2022-11-19T03:25:42.520Z,6.47
2022-11-19T03:28:16.599Z,6.50
2022-11-19T03:30:49.193Z,6.13
2022-11-19T03:33:25.779Z,7.40
2022-11-19T03:35:58.862Z,6.17
2022-11-19T03:38:32.468Z,6.50
2022-11-19T03:41:04.288Z,6.77
2022-11-19T03:43:40.756Z,6.10
2022-11-19T03:46:17.182Z,7.73
2022-11-19T03:48:52.927Z,7.00
2022-11-19T03:51:25.187Z,7.30
2022-11-19T03:53:55.806Z,7.03
2022-11-19T03:56:29.552Z,8.07
2022-11-19T03:59:02.002Z,7.00
2022-11-19T04:01:33.691Z,6.83
2022-11-19T04:04:18.873Z,5.87
2022-11-19T04:06:48.607Z,6.87
2022-11-19T04:09:19.083Z,7.17
2022-11-19T04:14:17.498Z,7.17
2022-11-19T04:16:47.413Z,9.90
2022-11-19T04:19:20.724Z,7.57
2022-11-19T04:21:50.879Z,8.53
2022-11-19T04:24:20.741Z,8.23
2022-11-19T04:26:50.444Z,7.10
2022-11-19T04:29:20.473Z,7.90
2022-11-19T04:31:50.456Z,7.70
2022-11-19T04:34:22.907Z,7.00
2022-11-19T04:36:52.621Z,7.90
2022-11-19T04:39:22.618Z,7.03
2022-11-19T04:41:52.501Z,7.07
2022-11-19T04:44:22.257Z,8.50
2022-11-19T04:46:51.993Z,7.60
2022-11-19T04:49:24.421Z,7.10
2022-11-19T04:51:54.205Z,7.23
2022-11-19T04:54:23.952Z,8.10
2022-11-19T04:56:53.691Z,7.90
2022-11-19T04:59:23.394Z,8.53
2022-11-19T05:01:53.144Z,7.53
2022-11-19T05:04:25.673Z,7.80
2022-11-19T05:06:55.453Z,9.77
2022-11-19T05:09:25.199Z,7.03
2022-11-19T05:11:54.936Z,7.97
2022-11-19T05:14:28.911Z,9.27
2022-11-19T05:17:00.167Z,8.37
2022-11-19T05:19:32.566Z,9.40
2022-11-19T05:22:02.271Z,8.87
2022-11-19T05:24:31.985Z,10.13
2022-11-19T05:27:01.697Z,8.27
2022-11-19T05:29:31.405Z,8.70
2022-11-19T05:32:01.220Z,7.97
2022-11-19T05:34:33.647Z,9.23
2022-11-19T05:37:03.381Z,8.67
2022-11-19T05:39:33.070Z,7.10
2022-11-19T05:42:02.780Z,8.37
2022-11-19T05:44:32.515Z,7.30
2022-11-19T05:47:02.203Z,8.33
2022-11-19T05:49:34.561Z,8.80
2022-11-19T05:52:04.308Z,8.43
2022-11-19T05:54:34.092Z,7.67
2022-11-19T05:57:03.956Z,8.50
2022-11-19T05:59:33.668Z,8.07
2022-11-19T06:02:03.400Z,9.13
2022-11-19T06:04:35.796Z,9.37
2022-11-19T06:07:05.550Z,7.73
2022-11-19T06:09:35.475Z,7.70
2022-11-19T06:12:05.243Z,8.20
2022-11-19T06:14:34.966Z,8.50
2022-11-19T06:17:04.711Z,9.57
2022-11-19T06:19:37.205Z,10.27
2022-11-19T06:22:06.944Z,8.90
2022-11-19T06:24:36.654Z,8.17
2022-11-19T06:27:06.763Z,7.20
2022-11-19T06:29:36.517Z,7.67
2022-11-19T06:32:06.546Z,7.93
2022-11-19T06:34:38.933Z,8.33
2022-11-19T06:37:08.680Z,7.90
2022-11-19T06:39:38.365Z,9.47
2022-11-19T06:42:20.604Z,7.37
2022-11-19T06:44:50.300Z,8.40
2022-11-19T06:47:20.082Z,8.03
2022-11-19T06:49:52.448Z,8.27
2022-11-19T06:52:22.158Z,8.37
2022-11-19T06:54:51.876Z,8.40
2022-11-19T06:57:21.623Z,6.80
2022-11-19T06:59:51.324Z,9.43
2022-11-19T07:02:21.678Z,8.03
2022-11-19T07:04:54.176Z,9.10
2022-11-19T07:07:24.083Z,8.83
2022-11-19T07:09:53.899Z,8.97
2022-11-19T07:12:23.631Z,7.87
2022-11-19T07:14:53.379Z,7.43
2022-11-19T07:17:23.116Z,7.43
2022-11-19T07:19:55.420Z,7.07
2022-11-19T07:22:25.325Z,7.87
2022-11-19T07:24:55.037Z,8.57
2022-11-19T07:27:24.758Z,9.07
2022-11-19T07:29:54.545Z,6.77
2022-11-19T07:32:24.435Z,8.07
2022-11-19T07:34:56.781Z,6.70
2022-11-19T07:37:26.790Z,8.43
2022-11-19T07:39:56.533Z,8.93
2022-11-19T07:42:38.674Z,9.63
2022-11-19T07:45:09.823Z,7.73
2022-11-19T07:47:39.567Z,8.20
2022-11-19T07:50:12.666Z,7.13
2022-11-19T07:52:42.451Z,7.67
2022-11-19T07:55:12.813Z,7.90
2022-11-19T07:57:42.592Z,7.17
2022-11-19T08:00:13.660Z,9.47
2022-11-19T08:02:43.376Z,7.97
2022-11-19T08:05:15.703Z,8.50
2022-11-19T08:07:45.451Z,6.80
2022-11-19T08:10:15.179Z,7.83
2022-11-19T08:13:03.251Z,8.73
2022-11-19T08:15:33.416Z,8.03
2022-11-19T08:18:12.685Z,10.13
2022-11-19T08:20:48.422Z,8.63
2022-11-19T08:23:18.427Z,8.40
2022-11-19T08:25:48.342Z,7.07
2022-11-19T08:28:18.068Z,8.50
2022-11-19T08:30:47.784Z,7.57
2022-11-19T08:33:17.488Z,8.30
2022-11-19T08:35:50.406Z,7.37
2022-11-19T08:38:20.129Z,6.73
2022-11-19T08:41:14.404Z,6.23
2022-11-19T08:43:41.737Z,8.27
2022-11-19T08:46:11.949Z,7.57
2022-11-19T08:48:41.634Z,7.23
2022-11-19T08:51:14.961Z,7.20
2022-11-19T08:53:44.912Z,7.73
2022-11-19T08:56:17.997Z,7.00
2022-11-19T08:58:48.321Z,6.77
2022-11-19T09:01:19.859Z,6.80
2022-11-19T09:03:50.009Z,6.70
2022-11-19T09:06:22.300Z,7.37
2022-11-19T09:08:52.032Z,7.10
2022-11-19T09:11:23.434Z,7.67
2022-11-19T09:13:53.108Z,5.47
2022-11-19T09:16:22.836Z,6.37
2022-11-19T09:18:52.707Z,7.67
2022-11-19T09:21:25.042Z,8.47
2022-11-19T09:23:54.742Z,6.93
2022-11-19T09:26:24.455Z,6.97
2022-11-19T09:28:55.363Z,7.20
2022-11-19T09:31:25.104Z,6.77
2022-11-19T09:33:55.660Z,5.87
2022-11-19T09:36:28.585Z,7.13
2022-11-19T09:39:02.308Z,6.30
2022-11-19T09:41:48.783Z,6.30
2022-11-19T09:44:31.995Z,6.50
2022-11-19T09:47:09.792Z,6.97
2022-11-19T09:49:45.341Z,6.60
2022-11-19T09:52:22.048Z,6.40
2022-11-19T09:54:55.158Z,5.23
2022-11-19T09:57:31.032Z,6.30
2022-11-19T10:00:04.517Z,6.00
2022-11-19T10:02:34.337Z,7.47
2022-11-19T10:05:04.268Z,6.27
2022-11-19T10:07:47.553Z,6.23
2022-11-19T10:10:34.124Z,5.73
2022-11-19T10:13:17.169Z,7.13
2022-11-19T10:15:59.640Z,5.97
2022-11-19T10:18:40.194Z,7.27
2022-11-19T10:21:17.326Z,6.40
2022-11-19T10:23:56.191Z,6.17
2022-11-19T10:26:34.975Z,6.07
2022-11-19T10:29:06.548Z,5.70
2022-11-19T10:31:39.879Z,6.27
2022-11-19T10:34:17.308Z,6.17
2022-11-19T10:36:50.942Z,7.87
2022-11-19T10:39:27.980Z,7.03
2022-11-19T10:42:04.306Z,7.03
2022-11-19T10:44:43.295Z,6.47
2022-11-19T10:47:19.584Z,6.13
2022-11-19T10:49:56.115Z,6.40
2022-11-19T10:52:30.104Z,6.50
2022-11-19T10:55:07.771Z,5.93
2022-11-19T10:57:37.778Z,6.43
2022-11-19T11:00:08.471Z,6.30
2022-11-19T11:02:47.608Z,6.80
2022-11-19T11:05:19.280Z,6.00
2022-11-19T11:07:52.661Z,7.40
2022-11-19T11:10:38.483Z,5.83
2022-11-19T11:13:23.984Z,6.00
2022-11-19T11:15:56.764Z,7.57
2022-11-19T11:18:28.889Z,5.90
2022-11-19T11:20:59.546Z,6.43
2022-11-19T11:23:31.110Z,6.17
2022-11-19T11:26:09.875Z,8.13
2022-11-19T11:28:39.964Z,6.93
2022-11-19T11:31:13.672Z,7.50
2022-11-19T11:33:45.212Z,5.43
2022-11-19T11:36:18.433Z,5.33
2022-11-19T11:38:50.426Z,5.73
2022-11-19T11:44:21.820Z,5.63
2022-11-19T11:46:53.528Z,7.50
2022-11-19T11:49:30.383Z,7.23
2022-11-19T11:52:19.475Z,6.67
2022-11-19T11:55:00.824Z,6.23
2022-11-19T11:57:35.932Z,5.57
2022-11-19T12:00:28.005Z,5.80
2022-11-19T12:03:03.014Z,7.77
2022-11-19T12:05:40.497Z,5.63
2022-11-19T12:08:16.594Z,5.90
2022-11-19T12:10:54.819Z,6.23
2022-11-19T12:13:54.919Z,7.30
2022-11-19T12:16:45.672Z,11.07
2022-11-19T12:19:35.932Z,11.77
2022-11-19T12:22:15.632Z,5.90
2022-11-19T12:25:04.763Z,5.77
2022-11-19T12:27:40.842Z,8.30
2022-11-19T12:30:18.533Z,5.13
2022-11-19T12:33:15.275Z,5.13
2022-11-19T12:35:57.056Z,6.00
2022-11-19T12:38:37.107Z,5.57
2022-11-19T12:41:20.608Z,6.73
2022-11-19T12:43:56.523Z,6.60
2022-11-19T12:46:43.326Z,6.23
2022-11-19T12:49:41.896Z,6.90
2022-11-19T12:52:32.481Z,5.30
2022-11-19T12:55:12.767Z,6.67
2022-11-19T12:57:50.787Z,8.83
2022-11-19T13:00:22.799Z,6.43
2022-11-19T13:03:07.407Z,7.03
2022-11-19T13:05:45.515Z,6.30
2022-11-19T13:08:21.290Z,5.80
2022-11-19T13:10:53.844Z,7.57
2022-11-19T13:13:29.125Z,5.77
2022-11-19T13:16:03.256Z,5.73
2022-11-19T13:18:39.054Z,6.27
2022-11-19T13:21:11.416Z,5.07
2022-11-19T13:23:45.325Z,5.50
2022-11-19T13:26:19.356Z,5.83
2022-11-19T13:28:53.446Z,6.17
2022-11-19T13:31:33.818Z,6.57
2022-11-19T13:34:18.535Z,6.43
2022-11-19T13:36:57.880Z,6.30
2022-11-19T13:39:34.388Z,6.73
2022-11-19T13:42:18.792Z,6.63
2022-11-19T13:44:48.953Z,5.53
2022-11-19T13:47:25.286Z,6.03
2022-11-19T13:50:02.628Z,6.57
2022-11-19T13:52:35.863Z,6.43
2022-11-19T13:55:07.305Z,5.93
2022-11-19T13:57:43.492Z,5.50
2022-11-19T14:00:26.348Z,5.57
2022-11-19T14:03:20.246Z,6.70
2022-11-19T14:06:22.774Z,4.50
2022-11-19T14:09:04.519Z,6.27
2022-11-19T14:11:53.522Z,6.10
2022-11-19T14:14:49.484Z,5.20
2022-11-19T14:17:41.004Z,4.93
2022-11-19T14:20:51.288Z,5.20
2022-11-19T14:24:01.159Z,5.50
2022-11-19T14:27:00.968Z,6.50
2022-11-19T14:29:56.842Z,7.67
2022-11-19T14:32:46.361Z,7.17
2022-11-19T14:35:34.819Z,5.40
2022-11-19T14:38:17.336Z,6.20
2022-11-19T14:40:50.248Z,6.00
2022-11-19T14:43:39.644Z,5.50
2022-11-19T14:46:27.303Z,6.03
2022-11-19T14:49:04.485Z,7.07
2022-11-19T14:51:40.369Z,6.37
2022-11-19T14:54:31.338Z,4.83
2022-11-19T14:57:11.937Z,6.03
2022-11-19T14:59:42.588Z,6.50
2022-11-19T15:02:25.947Z,5.87
2022-11-19T15:05:00.980Z,7.37
2022-11-19T15:08:14.848Z,6.20
2022-11-19T15:11:06.644Z,4.73
2022-11-19T15:13:40.731Z,5.10
2022-11-19T15:16:14.445Z,4.83
2022-11-19T15:19:10.992Z,5.07
2022-11-19T15:22:10.859Z,5.33
2022-11-19T15:24:56.996Z,5.87
2022-11-19T15:27:41.958Z,5.77
2022-11-19T15:30:20.844Z,5.10
2022-11-19T15:33:07.813Z,5.43
2022-11-19T15:36:06.186Z,4.27
2022-11-19T15:38:39.976Z,6.13
2022-11-19T15:41:10.494Z,6.23
2022-11-19T15:43:46.358Z,5.37
2022-11-19T15:46:29.917Z,5.30
2022-11-19T15:49:05.063Z,6.57
2022-11-19T15:51:41.874Z,5.43
2022-11-19T15:54:14.862Z,6.10
2022-11-19T15:56:50.918Z,5.33
2022-11-19T15:59:23.037Z,5.70
2022-11-19T16:02:03.911Z,6.07
2022-11-19T16:04:37.725Z,5.77
2022-11-19T16:07:10.120Z,7.97
2022-11-19T16:09:40.888Z,8.80
2022-11-19T16:12:35.375Z,7.97
2022-11-19T16:15:17.511Z,7.03
2022-11-19T16:17:50.546Z,7.20
2022-11-19T16:20:23.458Z,7.07
2022-11-19T16:22:59.954Z,7.23
2022-11-19T16:25:35.905Z,7.03
2022-11-19T16:28:09.348Z,7.63
2022-11-19T16:30:47.191Z,7.77
2022-11-19T16:33:23.224Z,6.60
2022-11-19T16:35:54.167Z,9.20
2022-11-19T16:38:30.339Z,8.63
2022-11-19T16:41:12.867Z,9.17
2022-11-19T16:43:48.684Z,8.17
2022-11-19T16:46:21.381Z,8.13
2022-11-19T16:49:02.662Z,11.03
2022-11-19T16:51:38.886Z,10.27
2022-11-19T16:54:11.023Z,9.87
2022-11-19T16:56:48.229Z,9.50
2022-11-19T16:59:23.997Z,8.07
2022-11-19T17:02:00.244Z,7.97
2022-11-19T17:04:34.519Z,11.63
2022-11-19T17:07:04.534Z,12.73
2022-11-19T17:09:41.873Z,11.57
2022-11-19T17:12:27.585Z,12.17
2022-11-19T17:15:00.150Z,12.07
2022-11-19T17:17:42.779Z,11.10
2022-11-19T17:20:42.457Z,11.60
2022-11-19T17:23:19.991Z,11.97
2022-11-19T17:25:51.396Z,13.80
2022-11-19T17:28:28.410Z,14.93
2022-11-19T17:30:58.859Z,14.83
2022-11-19T17:33:32.685Z,17.43
2022-11-19T17:36:05.168Z,15.40
2022-11-19T17:38:37.975Z,9.13
2022-11-19T17:41:08.237Z,16.90
2022-11-19T17:43:52.403Z,18.80
2022-11-19T17:46:22.960Z,18.57
2022-11-19T17:48:53.875Z,14.10
2022-11-19T17:51:25.060Z,16.43
2022-11-19T17:53:58.035Z,17.97
2022-11-19T17:56:30.628Z,17.43
2022-11-19T17:59:01.208Z,18.97
2022-11-19T18:01:31.129Z,17.00
2022-11-19T18:04:00.944Z,13.03
2022-11-19T18:06:30.728Z,13.83
2022-11-19T18:09:03.094Z,12.93
2022-11-19T18:11:33.708Z,12.40
2022-11-19T18:14:09.938Z,12.80
2022-11-19T18:16:42.788Z,20.03
2022-11-19T18:19:16.832Z,15.63
2022-11-19T18:21:48.566Z,18.07
2022-11-19T18:24:21.285Z,20.27
2022-11-19T18:26:51.016Z,17.33
2022-11-19T18:29:21.044Z,16.80
2022-11-19T18:31:53.506Z,14.43
2022-11-19T18:34:25.528Z,12.73
2022-11-19T18:36:55.256Z,11.37
2022-11-19T18:39:28.055Z,9.37
2022-11-19T18:41:58.532Z,9.57
2022-11-19T18:44:35.088Z,9.57
2022-11-19T18:47:06.778Z,9.67
2022-11-19T18:49:36.559Z,8.70
2022-11-19T18:52:08.938Z,11.27
2022-11-19T18:54:41.276Z,10.93
2022-11-19T18:57:12.101Z,11.97
2022-11-19T18:59:41.975Z,12.77
2022-11-19T19:02:12.916Z,11.87
2022-11-19T19:04:42.974Z,14.47
2022-11-19T19:07:13.357Z,16.07
2022-11-19T19:09:46.047Z,13.30
2022-11-19T19:12:22.382Z,14.27
2022-11-19T19:14:54.752Z,13.60
2022-11-19T19:17:24.608Z,13.83
2022-11-19T19:19:54.319Z,14.23
2022-11-19T19:22:24.249Z,11.13
2022-11-19T19:24:58.299Z,13.00
2022-11-19T19:27:28.506Z,14.53
2022-11-19T19:29:58.416Z,13.60
2022-11-19T19:32:28.135Z,13.87
2022-11-19T19:34:58.058Z,13.40
2022-11-19T19:37:27.811Z,12.70
2022-11-19T19:40:00.300Z,12.27
2022-11-19T19:42:31.695Z,12.17
2022-11-19T19:45:01.465Z,12.53
2022-11-19T19:47:31.145Z,12.87
2022-11-19T19:50:00.890Z,11.60
2022-11-19T19:52:30.575Z,13.57
2022-11-19T19:55:04.201Z,12.80
2022-11-19T19:57:33.959Z,13.00
2022-11-19T20:00:03.701Z,11.30
2022-11-19T20:02:33.533Z,13.07
2022-11-19T20:05:03.267Z,13.23
2022-11-19T20:07:33.255Z,13.47
2022-11-19T20:10:05.641Z,13.57
2022-11-19T20:12:47.579Z,14.30
2022-11-19T20:15:17.420Z,12.37
2022-11-19T20:17:47.209Z,15.93
2022-11-19T20:20:17.432Z,14.43
2022-11-19T20:22:47.671Z,14.80
2022-11-19T20:25:21.186Z,15.03
2022-11-19T20:27:50.980Z,13.23
2022-11-19T20:30:20.936Z,15.73
2022-11-19T20:32:50.691Z,12.97
2022-11-19T20:35:20.426Z,14.60
2022-11-19T20:37:50.148Z,15.10
2022-11-19T20:40:22.660Z,13.73
2022-11-19T20:43:04.907Z,14.50
2022-11-19T20:45:34.682Z,13.23
2022-11-19T20:48:04.844Z,13.33
2022-11-19T20:50:34.568Z,15.53
2022-11-19T20:53:04.291Z,15.50
2022-11-19T20:55:48.548Z,13.53
2022-11-19T20:58:26.815Z,12.80
2022-11-19T21:01:02.277Z,14.17
2022-11-19T21:03:32.207Z,12.97
2022-11-19T21:06:03.533Z,13.37
2022-11-19T21:08:35.095Z,14.10
2022-11-19T21:11:12.676Z,12.77
2022-11-19T21:13:42.834Z,12.80
2022-11-19T21:16:15.819Z,12.37
2022-11-19T21:18:46.045Z,11.60
2022-11-19T21:21:17.476Z,12.70
2022-11-19T21:23:47.409Z,12.77
2022-11-19T21:26:21.693Z,12.53
2022-11-19T21:28:53.651Z,13.17
2022-11-19T21:31:37.926Z,11.40
2022-11-19T21:34:08.454Z,11.97
2022-11-19T21:36:38.415Z,11.77
2022-11-19T21:39:09.931Z,11.33
2022-11-19T21:41:42.491Z,9.53
2022-11-19T21:44:18.075Z,12.30
2022-11-19T21:46:50.920Z,12.90
2022-11-19T21:49:21.179Z,13.77
2022-11-19T21:51:51.313Z,14.63
2022-11-19T21:54:21.136Z,16.67
2022-11-19T21:56:53.553Z,16.47
2022-11-19T21:59:24.394Z,17.57
2022-11-19T22:01:55.034Z,19.27
2022-11-19T22:04:24.979Z,19.53
2022-11-19T22:06:54.698Z,23.67
2022-11-19T22:09:24.420Z,16.70
2022-11-19T22:11:57.070Z,17.67
2022-11-19T22:14:27.062Z,18.33
2022-11-19T22:16:57.102Z,14.00
2022-11-19T22:19:26.882Z,12.10
2022-11-19T22:21:56.543Z,9.77
2022-11-19T22:24:26.184Z,9.33
2022-11-19T22:26:58.774Z,9.80
2022-11-19T22:29:28.662Z,9.50
2022-11-19T22:31:58.342Z,10.57
2022-11-19T22:34:29.320Z,8.10
2022-11-19T22:36:59.055Z,9.33
2022-11-19T22:39:29.009Z,11.07
2022-11-19T22:42:02.025Z,9.83
2022-11-19T22:44:31.705Z,9.53
2022-11-19T22:47:02.626Z,9.30
2022-11-19T22:49:33.180Z,10.40
2022-11-19T22:52:02.908Z,9.13
2022-11-19T22:54:38.653Z,11.00
2022-11-19T22:57:14.089Z,11.07
2022-11-19T22:59:43.814Z,9.10
2022-11-19T23:02:13.526Z,10.00
2022-11-19T23:04:43.266Z,8.80
2022-11-19T23:07:13.005Z,8.87
2022-11-19T23:09:42.751Z,10.93
2022-11-19T23:12:27.523Z,11.40
2022-11-19T23:14:57.378Z,10.57
2022-11-19T23:17:27.175Z,9.17
2022-11-19T23:20:01.613Z,10.47
2022-11-19T23:22:34.098Z,10.73
2022-11-19T23:25:04.035Z,9.10
2022-11-19T23:27:36.586Z,8.43
2022-11-19T23:30:07.142Z,9.53
2022-11-19T23:32:36.888Z,8.63
2022-11-19T23:35:07.200Z,9.60
2022-11-19T23:37:36.854Z,8.17
2022-11-19T23:40:07.143Z,7.97
2022-11-19T23:42:39.436Z,9.20
2022-11-19T23:45:10.088Z,10.30
2022-11-19T23:47:40.212Z,9.33
2022-11-19T23:50:11.220Z,9.80
2022-11-19T23:52:40.927Z,10.37
2022-11-19T23:55:11.110Z,8.97
2022-11-19T23:57:43.432Z,9.80
